createdAt,value
2023-02-22T00:01:47.399Z,101438.59
2023-02-22T00:04:15.978Z,101435.09
2023-02-22T00:06:42.674Z,101442.06
2023-02-22T00:09:10.336Z,101440.31
2023-02-22T00:11:38.531Z,101436.84
2023-02-22T00:14:05.592Z,101439.47
2023-02-22T00:16:32.181Z,101433.38
2023-02-22T00:18:58.773Z,101442.06
2023-02-22T00:21:25.458Z,101433.38
2023-02-22T00:23:54.589Z,101442.06
2023-02-22T00:26:23.497Z,101427.28
2023-02-22T00:28:56.504Z,101427.28
2023-02-22T00:31:26.191Z,101423.81
2023-02-22T00:33:52.703Z,101420.31
2023-02-22T00:36:20.087Z,101418.59
2023-02-22T00:38:46.498Z,101422.94
2023-02-22T00:41:15.317Z,101418.56
2023-02-22T00:43:42.361Z,101418.56
2023-02-22T00:46:09.074Z,101414.25
2023-02-22T00:48:35.634Z,101430.75
2023-02-22T00:51:02.298Z,101419.47
2023-02-22T00:53:29.734Z,101415.09
2023-02-22T00:55:56.312Z,101415.97
2023-02-22T00:58:24.362Z,101407.28
2023-02-22T01:00:51.123Z,101409.88
2023-02-22T01:03:20.421Z,101413.34
2023-02-22T01:05:47.820Z,101409.88
2023-02-22T01:08:16.056Z,101410.75
2023-02-22T01:10:42.938Z,101410.75
2023-02-22T01:13:12.209Z,101410.75
2023-02-22T01:15:41.801Z,101404.63
2023-02-22T01:18:11.522Z,101414.22
2023-02-22T01:20:39.548Z,101416.78
2023-02-22T01:23:08.079Z,101416.78
2023-02-22T01:25:35.688Z,101418.53
2023-02-22T01:28:04.451Z,101419.38
2023-02-22T01:30:35.267Z,101414.16
2023-02-22T01:33:03.790Z,101415.88
2023-02-22T01:35:36.250Z,101421.09
2023-02-22T01:38:02.934Z,101420.22
2023-02-22T01:40:36.478Z,101412.41
2023-02-22T01:43:25.547Z,101412.41
2023-02-22T01:45:58.259Z,101412.41
2023-02-22T01:48:33.798Z,101407.22
2023-02-22T01:51:11.342Z,101411.56
2023-02-22T01:53:46.299Z,101411.53
2023-02-22T01:56:14.890Z,101409.81
2023-02-22T01:58:46.252Z,101406.31
2023-02-22T02:01:14.199Z,101403.69
2023-02-22T02:03:41.979Z,101406.31
2023-02-22T02:06:14.896Z,101411.50
2023-02-22T02:08:53.554Z,101399.34
2023-02-22T02:11:25.394Z,101401.09
2023-02-22T02:13:55.131Z,101397.63
2023-02-22T02:16:34.618Z,101393.25
2023-02-22T02:19:01.432Z,101401.91
2023-02-22T02:21:55.045Z,101391.50
2023-02-22T02:25:18.604Z,101390.63
2023-02-22T02:28:17.147Z,101383.69
2023-02-22T02:30:49.923Z,101381.94
2023-02-22T02:33:38.196Z,101387.13
2023-02-22T02:36:27.980Z,101377.59
2023-02-22T02:39:01.619Z,101378.47
2023-02-22T02:41:35.408Z,101375.84
2023-02-22T02:44:04.557Z,101371.50
2023-02-22T02:46:36.707Z,101369.75
2023-02-22T02:49:11.181Z,101368.88
2023-02-22T02:51:44.310Z,101373.22
2023-02-22T02:54:11.740Z,101368.88
2023-02-22T02:56:38.443Z,101368.00
2023-02-22T02:59:25.352Z,101369.75
2023-02-22T03:01:57.925Z,101365.41
2023-02-22T03:04:59.978Z,101361.94
2023-02-22T03:08:14.030Z,101358.47
2023-02-22T03:10:47.182Z,101360.19
2023-02-22T03:13:29.147Z,101363.66
2023-02-22T03:16:16.564Z,101357.56
2023-02-22T03:18:53.191Z,101352.34
2023-02-22T03:21:32.044Z,101353.22
2023-02-22T03:24:43.690Z,101353.22
2023-02-22T03:27:25.869Z,101353.22
2023-02-22T03:30:00.391Z,101344.53
2023-02-22T03:32:34.247Z,101342.78
2023-02-22T03:35:16.555Z,101344.53
2023-02-22T03:37:48.888Z,101340.19
2023-02-22T03:40:30.041Z,101340.19
2023-02-22T03:43:02.353Z,101334.97
2023-02-22T03:45:30.777Z,101340.19
2023-02-22T03:48:23.407Z,101337.59
2023-02-22T03:50:51.013Z,101344.50
2023-02-22T03:53:20.101Z,101336.69
2023-02-22T03:55:53.564Z,101337.59
2023-02-22T03:58:24.993Z,101336.72
2023-02-22T04:00:53.247Z,101341.94
2023-02-22T04:03:21.078Z,101336.72
2023-02-22T04:05:47.808Z,101343.66
2023-02-22T04:08:14.467Z,101341.03
2023-02-22T04:10:41.164Z,101346.25
2023-02-22T04:13:08.762Z,101349.72
2023-02-22T04:15:38.246Z,101347.09
2023-02-22T04:18:07.131Z,101341.03
2023-02-22T04:20:35.869Z,101348.00
2023-02-22T04:23:11.045Z,101350.59
2023-02-22T04:25:40.013Z,101345.41
2023-02-22T04:28:15.179Z,101347.16
2023-02-22T04:30:47.128Z,101344.53
2023-02-22T04:33:16.189Z,101349.75
2023-02-22T04:35:42.774Z,101354.06
2023-02-22T04:38:12.177Z,101347.16
2023-02-22T04:40:41.631Z,101343.66
2023-02-22T04:43:09.848Z,101343.66
2023-02-22T04:45:36.415Z,101353.22
2023-02-22T04:48:04.591Z,101349.75
2023-02-22T04:50:31.114Z,101345.41
2023-02-22T04:52:57.718Z,101348.00
2023-02-22T04:55:24.636Z,101343.69
2023-02-22T04:57:51.177Z,101342.81
2023-02-22T05:00:21.653Z,101341.09
2023-02-22T05:02:49.977Z,101342.78
2023-02-22T05:05:19.273Z,101329.78
2023-02-22T05:07:48.197Z,101337.59
2023-02-22T05:10:15.195Z,101340.19
2023-02-22T05:12:41.710Z,101341.09
2023-02-22T05:15:09.480Z,101339.34
2023-02-22T05:17:36.510Z,101334.97
2023-02-22T05:20:04.478Z,101342.78
2023-02-22T05:22:31.010Z,101340.19
2023-02-22T05:24:57.573Z,101332.38
2023-02-22T05:27:24.627Z,101334.97
2023-02-22T05:29:51.037Z,101337.59
2023-02-22T05:32:17.625Z,101330.63
2023-02-22T05:34:44.266Z,101334.13
2023-02-22T05:37:10.776Z,101323.72
2023-02-22T05:39:37.269Z,101323.72
2023-02-22T05:42:04.158Z,101334.13
2023-02-22T05:44:30.826Z,101329.78
2023-02-22T05:46:57.326Z,101341.09
2023-02-22T05:49:23.950Z,101331.53
2023-02-22T05:51:50.534Z,101331.53
2023-02-22T05:54:17.026Z,101326.31
2023-02-22T05:56:43.580Z,101329.81
2023-02-22T05:59:10.106Z,101327.19
2023-02-22T06:01:36.674Z,101328.91
2023-02-22T06:04:03.318Z,101325.47
2023-02-22T06:06:29.899Z,101331.53
2023-02-22T06:08:56.464Z,101333.28
2023-02-22T06:11:22.998Z,101330.66
2023-02-22T06:13:51.936Z,101335.88
2023-02-22T06:16:21.554Z,101335.88
2023-02-22T06:18:48.704Z,101334.13
2023-02-22T06:21:15.244Z,101342.84
2023-02-22T06:23:41.808Z,101344.56
2023-02-22T06:26:08.391Z,101331.53
2023-02-22T06:28:35.030Z,101338.47
2023-02-22T06:31:01.550Z,101328.06
2023-02-22T06:33:28.655Z,101331.53
2023-02-22T06:35:55.529Z,101328.06
2023-02-22T06:38:24.277Z,101327.22
2023-02-22T06:40:51.205Z,101328.97
2023-02-22T06:43:17.775Z,101330.66
2023-02-22T06:45:44.405Z,101328.97
2023-02-22T06:48:10.936Z,101331.56
2023-02-22T06:50:37.960Z,101331.56
2023-02-22T06:53:04.828Z,101328.06
2023-02-22T06:55:33.320Z,101332.41
2023-02-22T06:58:00.330Z,101326.34
2023-02-22T07:00:31.308Z,101332.41
2023-02-22T07:02:59.119Z,101322.00
2023-02-22T07:05:26.892Z,101326.34
2023-02-22T07:07:55.564Z,101325.50
2023-02-22T07:10:31.027Z,101332.47
2023-02-22T07:12:57.768Z,101329.00
2023-02-22T07:15:26.381Z,101332.50
2023-02-22T07:17:52.979Z,101336.84
2023-02-22T07:20:20.973Z,101335.09
2023-02-22T07:22:50.703Z,101332.50
2023-02-22T07:25:17.686Z,101335.09
2023-02-22T07:27:44.809Z,101332.53
2023-02-22T07:30:33.110Z,101331.63
2023-02-22T07:33:02.386Z,101330.78
2023-02-22T07:35:31.942Z,101324.69
2023-02-22T07:37:58.905Z,101331.66
2023-02-22T07:40:26.988Z,101322.97
2023-02-22T07:43:07.140Z,101327.31
2023-02-22T07:45:35.547Z,101327.31
2023-02-22T07:48:04.444Z,101328.19
2023-02-22T07:50:32.607Z,101323.88
2023-02-22T07:53:02.557Z,101325.56
2023-02-22T07:55:31.414Z,101329.06
2023-02-22T07:58:03.997Z,101332.53
2023-02-22T08:00:33.400Z,101329.06
2023-02-22T08:03:01.911Z,101333.41
2023-02-22T08:05:30.303Z,101322.97
2023-02-22T08:07:57.048Z,101323.88
2023-02-22T08:10:26.430Z,101332.53
2023-02-22T08:12:53.891Z,101323.00
2023-02-22T08:15:24.442Z,101323.00
2023-02-22T08:17:51.475Z,101324.75
2023-02-22T08:20:17.916Z,101313.44
2023-02-22T08:22:44.922Z,101318.66
2023-02-22T08:25:12.157Z,101315.19
2023-02-22T08:27:38.783Z,101311.69
2023-02-22T08:30:06.499Z,101302.97
2023-02-22T08:32:33.805Z,101304.69
2023-02-22T08:35:01.279Z,101304.72
2023-02-22T08:37:27.791Z,101300.34
2023-02-22T08:39:56.114Z,101296.03
2023-02-22T08:42:24.794Z,101302.97
2023-02-22T08:44:51.367Z,101301.22
2023-02-22T08:47:17.873Z,101299.50
2023-02-22T08:49:44.881Z,101298.59
2023-02-22T08:52:11.395Z,101299.47
2023-02-22T08:54:37.891Z,101298.59
2023-02-22T08:57:04.608Z,101301.19
2023-02-22T08:59:31.154Z,101302.94
2023-02-22T09:01:57.735Z,101306.41
2023-02-22T09:04:24.484Z,101289.00
2023-02-22T09:06:51.897Z,101288.13
2023-02-22T09:09:21.275Z,101286.34
2023-02-22T09:11:52.674Z,101284.59
2023-02-22T09:14:19.694Z,101286.31
2023-02-22T09:16:46.421Z,101286.31
2023-02-22T09:19:14.398Z,101285.41
2023-02-22T09:21:40.992Z,101276.69
2023-02-22T09:24:10.893Z,101283.63
2023-02-22T09:26:39.474Z,101281.91
2023-02-22T09:29:12.126Z,101278.41
2023-02-22T09:31:40.634Z,101279.25
2023-02-22T09:34:13.925Z,101284.47
2023-02-22T09:36:46.183Z,101272.22
2023-02-22T09:39:15.370Z,101273.97
2023-02-22T09:42:07.806Z,101278.28
2023-02-22T09:44:58.522Z,101267.81
2023-02-22T09:47:48.494Z,101275.66
2023-02-22T09:50:22.385Z,101274.75
2023-02-22T09:53:14.382Z,101278.16
2023-02-22T09:55:47.790Z,101279.00
2023-02-22T09:58:24.363Z,101274.59
2023-02-22T10:00:59.588Z,101262.38
2023-02-22T10:03:50.477Z,101260.56
2023-02-22T10:06:23.819Z,101259.69
2023-02-22T10:08:56.598Z,101260.50
2023-02-22T10:11:32.473Z,101260.44
2023-02-22T10:14:34.574Z,101262.13
2023-02-22T10:17:15.269Z,101259.47
2023-02-22T10:19:54.878Z,101263.81
2023-02-22T10:22:22.084Z,101260.31
2023-02-22T10:24:58.822Z,101259.44
2023-02-22T10:27:38.427Z,101261.16
2023-02-22T10:30:24.069Z,101250.66
2023-02-22T10:33:19.169Z,101250.59
2023-02-22T10:35:47.188Z,101243.63
2023-02-22T10:38:20.125Z,101252.31
2023-02-22T10:40:54.850Z,101245.34
2023-02-22T10:43:23.333Z,101244.44
2023-02-22T10:45:55.864Z,101246.19
2023-02-22T10:48:26.319Z,101238.31
2023-02-22T10:50:57.419Z,101241.78
2023-02-22T10:53:27.720Z,101240.03
2023-02-22T10:56:07.444Z,101244.41
2023-02-22T10:58:45.668Z,101234.81
2023-02-22T11:01:28.802Z,101235.66
2023-02-22T11:04:17.981Z,101230.34
2023-02-22T11:07:09.579Z,101226.84
2023-02-22T11:09:50.284Z,101226.72
2023-02-22T11:12:19.906Z,101226.63
2023-02-22T11:14:47.174Z,101226.56
2023-02-22T11:17:22.335Z,101213.41
2023-02-22T11:19:50.582Z,101221.16
2023-02-22T11:22:41.063Z,101208.03
2023-02-22T11:25:08.725Z,101202.75
2023-02-22T11:27:40.477Z,101194.88
2023-02-22T11:30:27.711Z,101195.66
2023-02-22T11:33:00.886Z,101199.94
2023-02-22T11:35:35.819Z,101193.00
2023-02-22T11:38:17.803Z,101187.72
2023-02-22T11:40:45.795Z,101185.97
2023-02-22T11:43:19.264Z,101182.47
2023-02-22T11:46:02.718Z,101176.38
2023-02-22T11:48:34.598Z,101175.53
2023-02-22T11:51:17.239Z,101172.03
2023-02-22T11:54:09.802Z,101173.75
2023-02-22T11:56:41.141Z,101167.66
2023-02-22T11:59:46.507Z,101162.38
2023-02-22T12:02:56.590Z,101156.16
2023-02-22T12:05:37.617Z,101150.84
2023-02-22T12:08:20.211Z,101161.22
2023-02-22T12:11:04.102Z,101156.81
2023-02-22T12:13:42.592Z,101157.69
2023-02-22T12:16:34.626Z,101156.88
2023-02-22T12:19:26.292Z,101156.94
2023-02-22T12:22:02.380Z,101158.72
2023-02-22T12:24:44.427Z,101148.25
2023-02-22T12:27:22.263Z,101146.47
2023-02-22T12:29:57.767Z,101141.22
2023-02-22T12:32:54.804Z,101136.84
2023-02-22T12:35:46.205Z,101137.72
2023-02-22T12:38:38.431Z,101131.63
2023-02-22T12:41:18.956Z,101129.94
2023-02-22T12:43:51.766Z,101126.41
2023-02-22T12:46:30.541Z,101126.44
2023-02-22T12:49:41.501Z,101126.47
2023-02-22T12:52:22.178Z,101116.88
2023-02-22T12:55:12.893Z,101110.78
2023-02-22T12:57:57.168Z,101109.88
2023-02-22T13:00:48.300Z,101108.16
2023-02-22T13:03:14.827Z,101105.53
2023-02-22T13:05:41.581Z,101113.38
2023-02-22T13:08:30.062Z,101111.63
2023-02-22T13:11:22.293Z,101115.09
2023-02-22T13:14:00.273Z,101108.94
2023-02-22T13:17:02.443Z,101099.28
2023-02-22T13:20:08.355Z,101105.41
2023-02-22T13:22:50.021Z,101100.16
2023-02-22T13:25:21.479Z,101091.44
2023-02-22T13:27:59.400Z,101094.03
2023-02-22T13:30:40.649Z,101090.53
2023-02-22T13:33:24.309Z,101090.47
2023-02-22T13:36:17.523Z,101086.06
2023-02-22T13:39:03.321Z,101085.19
2023-02-22T13:41:48.445Z,101086.03
2023-02-22T13:44:57.234Z,101082.50
2023-02-22T13:47:40.965Z,101078.97
2023-02-22T13:50:38.171Z,101087.72
2023-02-22T13:53:12.091Z,101084.22
2023-02-22T13:55:42.928Z,101078.06
2023-02-22T13:58:12.452Z,101071.91
2023-02-22T14:00:48.524Z,101064.91
2023-02-22T14:03:15.264Z,101063.00
2023-02-22T14:05:42.308Z,101063.88
2023-02-22T14:08:27.951Z,101067.31
2023-02-22T14:11:02.524Z,101067.31
2023-02-22T14:13:31.165Z,101063.78
2023-02-22T14:15:57.790Z,101062.88
2023-02-22T14:18:42.005Z,101061.09
2023-02-22T14:21:20.485Z,101068.06
2023-02-22T14:23:50.743Z,101066.31
2023-02-22T14:26:31.154Z,101060.16
2023-02-22T14:29:02.793Z,101058.38
2023-02-22T14:31:51.526Z,101058.34
2023-02-22T14:35:00.751Z,101051.34
2023-02-22T14:37:33.692Z,101052.22
2023-02-22T14:40:19.587Z,101048.72
2023-02-22T14:42:50.974Z,101050.44
2023-02-22T14:45:29.932Z,101054.81
2023-02-22T14:48:13.735Z,101046.06
2023-02-22T14:50:48.818Z,101037.31
2023-02-22T14:53:41.036Z,101047.75
2023-02-22T14:56:36.216Z,101036.47
2023-02-22T14:59:07.817Z,101038.22
2023-02-22T15:01:49.337Z,101037.41
2023-02-22T15:04:28.319Z,101039.16
2023-02-22T15:06:57.095Z,101032.25
2023-02-22T15:09:30.099Z,101029.63
2023-02-22T15:12:04.021Z,101028.84
2023-02-22T15:14:37.568Z,101031.47
2023-02-22T15:17:18.372Z,101030.63
2023-02-22T15:19:47.051Z,101026.31
2023-02-22T15:22:35.811Z,101033.31
2023-02-22T15:25:06.363Z,101027.25
2023-02-22T15:27:36.987Z,101029.88
2023-02-22T15:30:08.026Z,101034.31
2023-02-22T15:32:36.690Z,101029.09
2023-02-22T15:35:23.433Z,101026.47
2023-02-22T15:38:10.969Z,101029.19
2023-02-22T15:40:42.866Z,101024.84
2023-02-22T15:43:24.276Z,101022.28
2023-02-22T15:45:52.158Z,101016.22
2023-02-22T15:48:19.643Z,101012.78
2023-02-22T15:51:07.018Z,101018.94
2023-02-22T15:53:40.151Z,101016.34
2023-02-22T15:56:12.417Z,101015.56
2023-02-22T15:58:39.455Z,101018.28
2023-02-22T16:01:08.744Z,101014.81
2023-02-22T16:03:44.794Z,101010.53
2023-02-22T16:06:17.796Z,101011.50
2023-02-22T16:08:54.746Z,101007.19
2023-02-22T16:11:35.805Z,101008.09
2023-02-22T16:14:05.899Z,100999.44
2023-02-22T16:16:41.555Z,100998.59
2023-02-22T16:19:35.730Z,101008.25
2023-02-22T16:22:05.208Z,101007.44
2023-02-22T16:24:34.347Z,101007.47
2023-02-22T16:27:13.161Z,101010.13
2023-02-22T16:29:40.166Z,101013.66
2023-02-22T16:32:06.997Z,101008.44
2023-02-22T16:34:33.779Z,101011.09
2023-02-22T16:37:01.336Z,101010.28
2023-02-22T16:39:30.354Z,101016.41
2023-02-22T16:42:00.193Z,101015.59
2023-02-22T16:44:28.026Z,101018.22
2023-02-22T16:46:59.441Z,101024.38
2023-02-22T16:49:26.969Z,101020.88
2023-02-22T16:52:01.116Z,101023.50
2023-02-22T16:54:39.688Z,101027.91
2023-02-22T16:57:06.497Z,101014.84
2023-02-22T16:59:38.541Z,101013.13
2023-02-22T17:02:08.532Z,101017.50
2023-02-22T17:04:35.276Z,101019.31
2023-02-22T17:07:05.032Z,101021.97
2023-02-22T17:09:32.929Z,101027.19
2023-02-22T17:11:59.866Z,101031.56
2023-02-22T17:14:32.791Z,101027.25
2023-02-22T17:17:00.216Z,101028.13
2023-02-22T17:19:27.313Z,101021.13
2023-02-22T17:21:53.799Z,101022.91
2023-02-22T17:24:26.107Z,101031.59
2023-02-22T17:26:53.221Z,101039.47
2023-02-22T17:29:20.602Z,101039.47
2023-02-22T17:31:50.940Z,101036.84
2023-02-22T17:34:17.934Z,101034.25
2023-02-22T17:36:44.650Z,101035.16
2023-02-22T17:39:11.071Z,101035.16
2023-02-22T17:41:40.534Z,101039.53
2023-02-22T17:44:07.713Z,101033.44
2023-02-22T17:46:36.122Z,101031.69
2023-02-22T17:49:03.380Z,101033.44
2023-02-22T17:51:30.063Z,101029.97
2023-02-22T17:53:56.678Z,101025.66
2023-02-22T17:56:23.364Z,101025.69
2023-02-22T17:58:53.811Z,101027.44
2023-02-22T18:01:30.731Z,101030.06
2023-02-22T18:03:58.715Z,101035.34
2023-02-22T18:06:28.540Z,101036.25
2023-02-22T18:08:57.061Z,101040.66
2023-02-22T18:11:26.580Z,101036.28
2023-02-22T18:13:57.619Z,101041.53
2023-02-22T18:16:28.193Z,101042.44
2023-02-22T18:18:55.774Z,101049.47
2023-02-22T18:21:24.176Z,101052.97
2023-02-22T18:23:50.806Z,101059.09
2023-02-22T18:26:19.930Z,101060.88
2023-02-22T18:28:48.716Z,101054.78
2023-02-22T18:31:17.923Z,101049.56
2023-02-22T18:33:50.451Z,101046.16
2023-02-22T18:36:22.887Z,101038.31
2023-02-22T18:38:52.284Z,101047.03
2023-02-22T18:41:25.197Z,101044.41
2023-02-22T18:43:54.997Z,101036.59
2023-02-22T18:46:25.374Z,101019.19
2023-02-22T18:48:56.898Z,101026.22
2023-02-22T18:51:24.882Z,101026.19
2023-02-22T18:53:56.991Z,101027.09
2023-02-22T18:56:26.564Z,101024.50
2023-02-22T18:58:54.703Z,101031.47
2023-02-22T19:01:22.013Z,101024.53
2023-02-22T19:03:48.966Z,101023.66
2023-02-22T19:06:17.122Z,101022.81
2023-02-22T19:08:45.406Z,101028.91
2023-02-22T19:11:19.437Z,101028.06
2023-02-22T19:13:47.538Z,101030.66
2023-02-22T19:16:16.451Z,101029.81
2023-02-22T19:18:44.191Z,101021.97
2023-02-22T19:21:13.829Z,101029.81
2023-02-22T19:23:45.540Z,101024.63
2023-02-22T19:26:14.369Z,101024.63
2023-02-22T19:28:40.934Z,101031.59
2023-02-22T19:31:14.737Z,101030.75
2023-02-22T19:33:42.115Z,101029.03
2023-02-22T19:36:10.656Z,101029.03
2023-02-22T19:38:37.764Z,101028.22
2023-02-22T19:41:12.369Z,101019.53
2023-02-22T19:43:39.174Z,101018.66
2023-02-22T19:46:07.338Z,101024.81
2023-02-22T19:48:34.626Z,101016.09
2023-02-22T19:51:10.189Z,101014.34
2023-02-22T19:53:40.817Z,101010.91
2023-02-22T19:56:09.593Z,101021.41
2023-02-22T19:58:41.016Z,101011.81
2023-02-22T20:01:14.419Z,101017.91
2023-02-22T20:03:42.469Z,101022.31
2023-02-22T20:06:12.362Z,101014.50
2023-02-22T20:08:42.086Z,101016.25
2023-02-22T20:11:10.501Z,101018.91
2023-02-22T20:13:41.155Z,101011.97
2023-02-22T20:16:09.906Z,101012.84
2023-02-22T20:18:36.820Z,101012.88
2023-02-22T20:21:11.377Z,101017.22
2023-02-22T20:23:40.610Z,101019.88
2023-02-22T20:26:15.209Z,101014.69
2023-02-22T20:28:42.101Z,101018.19
2023-02-22T20:31:11.279Z,101006.00
2023-02-22T20:33:41.613Z,101002.53
2023-02-22T20:36:10.407Z,101009.53
2023-02-22T20:38:37.651Z,101011.25
2023-02-22T20:41:09.660Z,101014.75
2023-02-22T20:43:36.242Z,101016.47
2023-02-22T20:46:05.294Z,101009.53
2023-02-22T20:48:32.599Z,101002.56
2023-02-22T20:51:07.254Z,101011.28
2023-02-22T20:53:35.264Z,101010.41
2023-02-22T20:56:02.365Z,101007.81
2023-02-22T20:58:29.303Z,101003.53
2023-02-22T21:00:55.899Z,101000.03
2023-02-22T21:03:22.551Z,101000.91
2023-02-22T21:05:49.122Z,100997.44
2023-02-22T21:08:15.738Z,100998.34
2023-02-22T21:10:44.749Z,100995.75
2023-02-22T21:13:11.699Z,100991.41
2023-02-22T21:15:43.522Z,100992.31
2023-02-22T21:18:11.080Z,100991.44
2023-02-22T21:20:40.818Z,100983.63
2023-02-22T21:23:08.419Z,100992.31
2023-02-22T21:25:35.072Z,100997.56
2023-02-22T21:28:01.664Z,100993.22
2023-02-22T21:30:28.543Z,100991.47
2023-02-22T21:32:56.735Z,100986.25
2023-02-22T21:35:25.090Z,100988.03
2023-02-22T21:37:52.538Z,100988.91
2023-02-22T21:40:19.318Z,100988.06
2023-02-22T21:42:48.063Z,100987.16
2023-02-22T21:45:20.480Z,100994.16
2023-02-22T21:47:48.588Z,100978.53
2023-02-22T21:50:18.096Z,100977.66
2023-02-22T21:52:47.084Z,100986.38
2023-02-22T21:55:15.207Z,100982.88
2023-02-22T21:57:42.881Z,100988.09
2023-02-22T22:00:28.955Z,100987.25
2023-02-22T22:03:09.634Z,100982.00
2023-02-22T22:05:39.404Z,100982.88
2023-02-22T22:08:13.217Z,100981.13
2023-02-22T22:10:39.887Z,100987.25
2023-02-22T22:13:09.011Z,100974.22
2023-02-22T22:15:37.385Z,100982.06
2023-02-22T22:18:06.722Z,100982.03
2023-02-22T22:20:34.007Z,100982.91
2023-02-22T22:23:00.662Z,100987.25
2023-02-22T22:25:28.418Z,100979.44
2023-02-22T22:27:56.224Z,100972.50
2023-02-22T22:30:23.475Z,100975.97
2023-02-22T22:32:50.435Z,100974.22
2023-02-22T22:35:17.050Z,100969.91
2023-02-22T22:37:43.689Z,100972.50
2023-02-22T22:40:15.661Z,100968.19
2023-02-22T22:42:43.289Z,100977.75
2023-02-22T22:45:11.710Z,100973.41
2023-02-22T22:47:39.396Z,100967.34
2023-02-22T22:50:07.240Z,100975.16
2023-02-22T22:52:35.459Z,100972.53
2023-02-22T22:55:02.707Z,100967.31
2023-02-22T22:57:29.617Z,100970.78
2023-02-22T22:59:56.251Z,100964.75
2023-02-22T23:02:22.818Z,100967.34
2023-02-22T23:04:50.360Z,100968.19
2023-02-22T23:07:17.245Z,100969.09
2023-02-22T23:09:44.063Z,100964.75
2023-02-22T23:12:16.546Z,100963.00
2023-02-22T23:14:44.645Z,100962.13
2023-02-22T23:17:15.894Z,100961.28
2023-02-22T23:19:46.987Z,100968.19
2023-02-22T23:22:14.508Z,100966.47
2023-02-22T23:24:42.680Z,100968.19
2023-02-22T23:27:10.787Z,100964.72
2023-02-22T23:29:39.645Z,100973.41
2023-02-22T23:32:07.423Z,100974.31
2023-02-22T23:34:36.252Z,100964.72
2023-02-22T23:37:03.240Z,100969.09
2023-02-22T23:39:29.852Z,100971.66
2023-02-22T23:42:00.696Z,100969.94
2023-02-22T23:44:28.160Z,100968.22
2023-02-22T23:46:55.334Z,100961.25
2023-02-22T23:49:25.781Z,100969.06
2023-02-22T23:51:52.782Z,100963.84
2023-02-22T23:54:20.305Z,100966.47
2023-02-22T23:56:56.424Z,100972.53
2023-02-22T23:59:25.478Z,100973.41
